createdAt,value
2018-08-10T00:02:22.801Z,1.30
2018-08-10T00:04:53.460Z,1.23
2018-08-10T00:07:24.287Z,1.33
2018-08-10T00:09:54.993Z,1.30
2018-08-10T00:12:26.026Z,1.40
2018-08-10T00:14:56.753Z,1.20
2018-08-10T00:17:27.346Z,1.40
2018-08-10T00:19:57.898Z,1.80
2018-08-10T00:22:28.175Z,1.23
2018-08-10T00:24:58.450Z,1.43
2018-08-10T00:27:28.764Z,1.70
2018-08-10T00:29:58.947Z,2.70
2018-08-10T00:32:29.094Z,4.63
2018-08-10T00:34:59.255Z,2.00
2018-08-10T00:37:29.359Z,2.23
2018-08-10T00:39:59.601Z,3.37
2018-08-10T00:42:29.875Z,3.33
2018-08-10T00:45:00.149Z,3.40
2018-08-10T00:47:30.333Z,3.33
2018-08-10T00:50:00.420Z,3.60
2018-08-10T00:52:30.629Z,2.70
2018-08-10T00:55:00.816Z,4.50
2018-08-10T00:57:30.953Z,3.10
2018-08-10T01:00:01.156Z,2.97
2018-08-10T01:02:31.860Z,3.70
2018-08-10T01:05:02.097Z,3.20
2018-08-10T01:07:32.197Z,2.90
2018-08-10T01:10:02.349Z,2.70
2018-08-10T01:12:32.480Z,1.97
2018-08-10T01:15:02.625Z,1.60
2018-08-10T01:17:32.800Z,1.80
2018-08-10T01:20:04.569Z,1.93
2018-08-10T01:22:38.729Z,1.87
2018-08-10T01:25:08.985Z,1.80
2018-08-10T01:27:44.088Z,1.60
2018-08-10T01:30:14.345Z,1.87
2018-08-10T01:32:44.470Z,1.60
2018-08-10T01:35:14.591Z,1.63
2018-08-10T01:37:44.748Z,2.00
2018-08-10T01:40:14.946Z,1.30
2018-08-10T01:42:45.096Z,1.40
2018-08-10T01:45:15.268Z,1.70
2018-08-10T01:47:45.424Z,1.53
2018-08-10T01:50:15.746Z,2.10
2018-08-10T01:52:45.965Z,1.97
2018-08-10T01:55:16.195Z,2.20
2018-08-10T01:57:46.370Z,2.60
2018-08-10T02:00:16.510Z,2.53
2018-08-10T02:02:46.729Z,2.83
2018-08-10T02:05:17.150Z,3.30
2018-08-10T02:07:47.253Z,3.60
2018-08-10T02:10:18.856Z,3.53
2018-08-10T02:12:58.545Z,2.87
2018-08-10T02:15:28.677Z,3.27
2018-08-10T02:17:58.902Z,3.60
2018-08-10T02:20:29.036Z,4.17
2018-08-10T02:22:59.152Z,3.60
2018-08-10T02:25:29.331Z,3.33
2018-08-10T02:27:59.490Z,3.93
2018-08-10T02:30:29.645Z,4.00
2018-08-10T02:32:59.717Z,3.60
2018-08-10T02:35:29.814Z,3.73
2018-08-10T02:37:59.874Z,4.10
2018-08-10T02:40:30.075Z,4.40
2018-08-10T02:43:00.186Z,4.00
2018-08-10T02:45:30.355Z,3.80
2018-08-10T02:48:00.449Z,3.73
2018-08-10T02:50:30.675Z,3.63
2018-08-10T02:53:00.811Z,3.63
2018-08-10T02:55:31.576Z,3.43
2018-08-10T02:58:01.696Z,4.20
2018-08-10T03:00:31.831Z,4.83
2018-08-10T03:03:01.885Z,3.50
2018-08-10T03:05:32.001Z,4.00
2018-08-10T03:08:02.237Z,3.80
2018-08-10T03:10:32.451Z,3.60
2018-08-10T03:13:02.621Z,3.70
2018-08-10T03:15:32.828Z,3.80
2018-08-10T03:18:03.426Z,4.03
2018-08-10T03:20:33.581Z,3.00
2018-08-10T03:23:03.799Z,3.83
2018-08-10T03:25:33.925Z,3.40
2018-08-10T03:28:04.089Z,3.60
2018-08-10T03:30:34.179Z,3.17
2018-08-10T03:33:04.531Z,2.73
2018-08-10T03:35:34.818Z,3.67
2018-08-10T03:38:04.924Z,3.20
2018-08-10T03:40:35.061Z,3.43
2018-08-10T03:43:05.131Z,2.77
2018-08-10T03:45:35.237Z,3.13
2018-08-10T03:48:05.755Z,3.47
2018-08-10T03:50:35.916Z,3.60
2018-08-10T03:53:06.297Z,2.77
2018-08-10T03:55:36.520Z,3.10
2018-08-10T03:58:06.675Z,4.03
2018-08-10T04:00:36.827Z,3.17
2018-08-10T04:03:07.402Z,3.40
2018-08-10T04:05:44.213Z,3.83
2018-08-10T04:08:14.443Z,3.70
2018-08-10T04:10:44.550Z,3.17
2018-08-10T04:13:14.665Z,3.47
2018-08-10T04:15:44.961Z,2.97
2018-08-10T04:18:15.045Z,3.20
2018-08-10T04:20:45.195Z,3.33
2018-08-10T04:23:15.301Z,3.90
2018-08-10T04:25:45.456Z,3.10
2018-08-10T04:28:15.576Z,3.23
2018-08-10T04:30:45.728Z,4.07
2018-08-10T04:33:15.791Z,3.77
2018-08-10T04:35:45.941Z,3.30
2018-08-10T04:38:16.016Z,3.63
2018-08-10T04:40:46.148Z,3.23
2018-08-10T04:43:16.192Z,4.00
2018-08-10T04:45:46.350Z,3.23
2018-08-10T04:48:16.566Z,3.57
2018-08-10T04:50:46.689Z,3.50
2018-08-10T04:53:16.808Z,3.70
2018-08-10T04:55:47.093Z,4.20
2018-08-10T04:58:17.221Z,3.67
2018-08-10T05:00:47.359Z,3.50
2018-08-10T05:03:17.562Z,6.20
2018-08-10T05:05:47.806Z,4.37
2018-08-10T05:08:17.922Z,4.00
2018-08-10T05:10:48.104Z,3.57
2018-08-10T05:13:18.216Z,3.70
2018-08-10T05:15:48.462Z,4.33
2018-08-10T05:18:18.543Z,4.53
2018-08-10T05:20:48.684Z,5.83
2018-08-10T05:23:18.790Z,3.90
2018-08-10T05:25:48.981Z,5.10
2018-08-10T05:28:19.065Z,4.43
2018-08-10T05:30:49.343Z,4.50
2018-08-10T05:33:19.480Z,4.20
2018-08-10T05:35:49.679Z,4.40
2018-08-10T05:38:19.833Z,3.80
2018-08-10T05:40:50.046Z,4.80
2018-08-10T05:43:20.172Z,4.30
2018-08-10T05:45:55.497Z,3.83
2018-08-10T05:48:25.664Z,3.90
2018-08-10T05:50:55.838Z,4.63
2018-08-10T05:53:25.919Z,4.67
2018-08-10T05:55:56.159Z,4.27
2018-08-10T05:58:26.339Z,5.30
2018-08-10T06:00:56.539Z,3.87
2018-08-10T06:03:27.540Z,3.87
2018-08-10T06:05:57.735Z,3.57
2018-08-10T06:08:27.848Z,3.07
2018-08-10T06:10:57.977Z,3.20
2018-08-10T06:13:28.114Z,3.17
2018-08-10T06:15:58.305Z,3.20
2018-08-10T06:18:28.457Z,2.60
2018-08-10T06:20:58.539Z,3.37
2018-08-10T06:23:28.630Z,3.07
2018-08-10T06:25:58.782Z,2.60
2018-08-10T06:28:28.901Z,3.70
2018-08-10T06:30:59.064Z,2.20
2018-08-10T06:33:29.154Z,2.73
2018-08-10T06:35:59.286Z,3.07
2018-08-10T06:38:29.409Z,3.20
2018-08-10T06:40:59.668Z,3.00
2018-08-10T06:43:29.751Z,3.27
2018-08-10T06:45:59.926Z,2.47
2018-08-10T06:48:30.088Z,2.63
2018-08-10T06:51:00.159Z,2.50
2018-08-10T06:53:30.309Z,2.77
2018-08-10T06:56:01.496Z,2.70
2018-08-10T06:58:31.635Z,3.07
2018-08-10T07:01:01.806Z,2.60
2018-08-10T07:03:31.912Z,2.63
2018-08-10T07:06:02.052Z,1.97
2018-08-10T07:08:32.361Z,1.63
2018-08-10T07:11:02.483Z,2.60
2018-08-10T07:13:32.767Z,2.77
2018-08-10T07:16:02.964Z,2.60
2018-08-10T07:18:33.573Z,2.10
2018-08-10T07:21:03.719Z,4.33
2018-08-10T07:23:33.894Z,3.90
2018-08-10T07:26:03.975Z,3.87
2018-08-10T07:28:34.140Z,4.67
2018-08-10T07:31:04.209Z,4.20
2018-08-10T07:33:34.407Z,4.83
2018-08-10T07:36:04.567Z,5.57
2018-08-10T07:38:34.707Z,5.13
2018-08-10T07:41:04.789Z,5.13
2018-08-10T07:43:34.943Z,3.90
2018-08-10T07:46:05.050Z,5.00
2018-08-10T07:48:39.100Z,4.27
2018-08-10T07:51:09.585Z,4.10
2018-08-10T07:53:39.722Z,5.30
2018-08-10T07:56:09.806Z,4.27
2018-08-10T07:58:39.915Z,3.90
2018-08-10T08:01:10.077Z,4.30
2018-08-10T08:03:40.300Z,4.87
2018-08-10T08:06:10.548Z,3.00
2018-08-10T08:08:40.657Z,3.03
2018-08-10T08:11:10.879Z,4.70
2018-08-10T08:13:41.071Z,3.70
2018-08-10T08:16:11.482Z,3.90
2018-08-10T08:18:41.621Z,3.67
2018-08-10T08:21:12.835Z,3.10
2018-08-10T08:23:42.915Z,3.10
2018-08-10T08:26:13.150Z,3.07
2018-08-10T08:28:43.287Z,3.57
2018-08-10T08:31:13.520Z,3.20
2018-08-10T08:34:05.973Z,2.80
2018-08-10T08:36:36.734Z,2.30
2018-08-10T08:41:21.177Z,1.97
2018-08-10T08:46:02.334Z,2.80
2018-08-10T08:48:35.905Z,2.77
2018-08-10T08:51:08.613Z,2.50
2018-08-10T08:53:38.810Z,2.83
2018-08-10T08:56:10.687Z,2.00
2018-08-10T08:58:41.838Z,2.13
2018-08-10T09:01:12.300Z,2.43
2018-08-10T09:05:03.129Z,1.90
2018-08-10T09:07:33.545Z,2.10
2018-08-10T09:10:06.004Z,1.90
2018-08-10T09:12:36.168Z,1.10
2018-08-10T09:15:09.150Z,1.50
2018-08-10T09:17:39.440Z,1.10
2018-08-10T09:20:10.540Z,1.37
2018-08-10T09:22:40.831Z,1.80
2018-08-10T09:25:15.152Z,1.77
2018-08-10T09:27:45.368Z,1.80
2018-08-10T09:30:18.208Z,1.90
2018-08-10T09:32:48.471Z,1.40
2018-08-10T09:35:18.673Z,1.20
2018-08-10T09:37:48.843Z,1.53
2018-08-10T09:40:20.529Z,1.80
2018-08-10T09:42:50.812Z,1.40
2018-08-10T09:45:21.087Z,1.87
2018-08-10T09:47:50.903Z,1.60
2018-08-10T09:50:21.537Z,1.23
2018-08-10T09:53:01.496Z,1.07
2018-08-10T09:55:33.858Z,2.10
2018-08-10T09:58:12.903Z,1.50
2018-08-10T10:00:48.325Z,1.93
2018-08-10T10:03:20.912Z,1.70
2018-08-10T10:05:52.053Z,1.33
2018-08-10T10:08:22.775Z,1.50
2018-08-10T10:10:52.998Z,1.30
2018-08-10T10:13:23.311Z,1.47
2018-08-10T10:15:53.434Z,1.33
2018-08-10T10:18:23.649Z,1.60
2018-08-10T10:20:53.919Z,1.00
2018-08-10T10:23:24.062Z,1.10
2018-08-10T10:25:54.163Z,1.57
2018-08-10T10:28:24.374Z,2.17
2018-08-10T10:30:54.510Z,1.70
2018-08-10T10:33:24.621Z,1.03
2018-08-10T10:35:54.823Z,1.33
2018-08-10T10:38:25.148Z,1.33
2018-08-10T10:40:55.218Z,1.30
2018-08-10T10:43:25.329Z,1.03
2018-08-10T10:45:55.428Z,1.80
2018-08-10T10:48:25.596Z,1.10
2018-08-10T10:50:55.828Z,1.47
2018-08-10T10:53:25.968Z,1.10
2018-08-10T10:55:56.212Z,1.20
2018-08-10T10:58:26.357Z,1.20
2018-08-10T11:00:56.584Z,1.20
2018-08-10T11:03:26.685Z,0.80
2018-08-10T11:05:56.821Z,1.27
2018-08-10T11:08:27.018Z,1.03
2018-08-10T11:10:57.187Z,0.97
2018-08-10T11:13:27.450Z,1.57
2018-08-10T11:15:57.557Z,1.60
2018-08-10T11:18:27.804Z,1.20
2018-08-10T11:20:57.836Z,1.20
2018-08-10T11:23:27.915Z,1.10
2018-08-10T11:25:58.089Z,1.30
2018-08-10T11:28:28.248Z,1.20
2018-08-10T11:30:58.387Z,0.90
2018-08-10T11:33:28.597Z,1.00
2018-08-10T11:35:58.722Z,1.20
2018-08-10T11:38:28.864Z,0.80
2018-08-10T11:40:59.079Z,1.40
2018-08-10T11:43:29.247Z,1.40
2018-08-10T11:45:59.414Z,0.80
2018-08-10T11:48:29.588Z,1.20
2018-08-10T11:50:59.652Z,1.80
2018-08-10T11:53:29.893Z,1.10
2018-08-10T11:56:00.058Z,0.80
2018-08-10T11:58:30.305Z,1.03
2018-08-10T12:01:00.528Z,1.17
2018-08-10T12:03:30.800Z,0.90
2018-08-10T12:06:00.998Z,0.83
2018-08-10T12:08:31.508Z,0.90
2018-08-10T12:11:01.557Z,1.33
2018-08-10T12:13:31.721Z,1.00
2018-08-10T12:16:01.965Z,0.97
2018-08-10T12:18:32.256Z,1.10
2018-08-10T12:21:02.412Z,1.30
2018-08-10T12:23:32.595Z,1.40
2018-08-10T12:26:02.715Z,1.83
2018-08-10T12:28:32.860Z,1.60
2018-08-10T12:31:03.044Z,1.33
2018-08-10T12:33:33.234Z,1.30
2018-08-10T12:36:03.525Z,1.17
2018-08-10T12:38:33.837Z,1.13
2018-08-10T12:41:04.037Z,1.13
2018-08-10T12:43:34.307Z,0.90
2018-08-10T12:46:04.572Z,0.80
2018-08-10T12:48:34.734Z,1.40
2018-08-10T12:51:04.853Z,1.43
2018-08-10T12:53:35.080Z,1.07
2018-08-10T12:56:06.032Z,1.20
2018-08-10T12:58:36.194Z,1.43
2018-08-10T13:01:09.212Z,1.50
2018-08-10T13:03:39.453Z,1.23
2018-08-10T13:06:09.626Z,1.27
2018-08-10T13:08:39.822Z,1.87
2018-08-10T13:11:09.967Z,1.43
2018-08-10T13:13:40.473Z,1.37
2018-08-10T13:16:10.730Z,1.63
2018-08-10T13:18:40.919Z,1.43
2018-08-10T13:21:11.105Z,1.10
2018-08-10T13:23:41.251Z,2.10
2018-08-10T13:26:11.449Z,1.10
2018-08-10T13:28:41.705Z,1.20
2018-08-10T13:31:12.156Z,1.50
2018-08-10T13:33:42.470Z,1.00
2018-08-10T13:36:12.628Z,1.10
2018-08-10T13:38:42.756Z,0.97
2018-08-10T13:41:12.911Z,1.37
2018-08-10T13:43:43.171Z,1.20
2018-08-10T13:46:13.341Z,1.80
2018-08-10T13:48:43.589Z,1.70
2018-08-10T13:51:13.765Z,1.17
2018-08-10T13:53:43.954Z,1.17
2018-08-10T13:56:14.281Z,1.10
2018-08-10T13:58:44.512Z,1.43
2018-08-10T14:01:15.047Z,0.87
2018-08-10T14:03:45.238Z,1.40
2018-08-10T14:06:15.353Z,1.30
2018-08-10T14:08:45.477Z,1.13
2018-08-10T14:11:15.638Z,0.93
2018-08-10T14:13:45.965Z,1.13
2018-08-10T14:16:16.295Z,0.87
2018-08-10T14:18:46.518Z,1.03
2018-08-10T14:21:16.737Z,1.00
2018-08-10T14:23:46.911Z,0.87
2018-08-10T14:26:17.018Z,1.27
2018-08-10T14:28:47.195Z,1.00
2018-08-10T14:31:17.404Z,1.10
2018-08-10T14:33:47.625Z,0.93
2018-08-10T14:36:17.860Z,1.13
2018-08-10T14:38:48.113Z,1.20
2018-08-10T14:41:18.461Z,1.23
2018-08-10T14:43:48.707Z,1.20
2018-08-10T14:46:18.827Z,1.03
2018-08-10T14:48:49.060Z,1.27
2018-08-10T14:51:19.390Z,1.20
2018-08-10T14:53:49.712Z,0.80
2018-08-10T14:56:19.834Z,1.00
2018-08-10T14:58:50.012Z,0.80
2018-08-10T15:01:20.174Z,0.80
2018-08-10T15:03:50.387Z,0.90
2018-08-10T15:06:20.527Z,0.80
2018-08-10T15:08:50.792Z,0.70
2018-08-10T15:11:20.997Z,0.80
2018-08-10T15:13:51.227Z,1.07
2018-08-10T15:16:21.411Z,1.07
2018-08-10T15:18:51.596Z,1.23
2018-08-10T15:21:21.773Z,1.37
2018-08-10T15:23:51.935Z,0.90
2018-08-10T15:26:22.132Z,1.00
2018-08-10T15:28:52.281Z,0.73
2018-08-10T15:31:22.431Z,0.90
2018-08-10T15:33:52.653Z,0.90
2018-08-10T15:36:22.828Z,0.90
2018-08-10T15:38:53.121Z,0.80
2018-08-10T15:41:23.265Z,1.30
2018-08-10T15:43:53.449Z,1.20
2018-08-10T15:46:23.558Z,0.80
2018-08-10T15:48:53.903Z,1.17
2018-08-10T15:51:24.023Z,0.97
2018-08-10T15:53:54.245Z,2.00
2018-08-10T15:56:24.492Z,1.03
2018-08-10T15:58:54.503Z,0.90
2018-08-10T16:01:24.611Z,1.27
2018-08-10T16:03:55.007Z,1.10
2018-08-10T16:06:25.154Z,1.10
2018-08-10T16:08:55.299Z,1.47
2018-08-10T16:11:25.443Z,0.77
2018-08-10T16:13:55.753Z,0.77
2018-08-10T16:16:25.919Z,1.20
2018-08-10T16:18:55.992Z,0.73
2018-08-10T16:21:26.126Z,0.67
2018-08-10T16:23:56.240Z,0.80
2018-08-10T16:26:26.350Z,1.50
2018-08-10T16:28:56.592Z,0.80
2018-08-10T16:31:26.787Z,0.90
2018-08-10T16:33:56.924Z,0.90
2018-08-10T16:36:27.042Z,0.73
2018-08-10T16:38:57.266Z,0.60
2018-08-10T16:41:27.357Z,0.77
2018-08-10T16:43:57.662Z,1.00
2018-08-10T16:46:27.815Z,0.83
2018-08-10T16:48:58.006Z,0.73
2018-08-10T16:51:28.103Z,0.90
2018-08-10T16:53:58.382Z,1.00
2018-08-10T16:56:28.561Z,0.80
2018-08-10T16:58:58.766Z,1.10
2018-08-10T17:01:29.048Z,0.73
2018-08-10T17:03:59.191Z,0.80
2018-08-10T17:06:29.325Z,1.20
2018-08-10T17:08:59.563Z,0.87
2018-08-10T17:11:29.722Z,0.90
2018-08-10T17:13:59.970Z,0.80
2018-08-10T17:16:30.126Z,0.80
2018-08-10T17:19:00.356Z,1.00
2018-08-10T17:21:30.559Z,0.93
2018-08-10T17:24:00.862Z,1.80
2018-08-10T17:26:31.115Z,0.87
2018-08-10T17:29:01.263Z,1.10
2018-08-10T17:31:31.371Z,1.33
2018-08-10T17:34:01.458Z,0.70
2018-08-10T17:36:32.265Z,0.90
2018-08-10T17:39:02.509Z,0.70
2018-08-10T17:41:32.643Z,0.90
2018-08-10T17:44:02.840Z,0.90
2018-08-10T17:46:33.200Z,1.10
2018-08-10T17:49:03.368Z,0.70
2018-08-10T17:51:33.541Z,1.10
2018-08-10T17:54:03.901Z,0.83
2018-08-10T17:56:34.159Z,1.07
2018-08-10T17:59:04.560Z,0.90
2018-08-10T18:01:34.639Z,1.10
2018-08-10T18:04:04.919Z,1.20
2018-08-10T18:06:35.047Z,0.80
2018-08-10T18:09:08.174Z,1.07
2018-08-10T18:11:38.857Z,0.80
2018-08-10T18:14:09.932Z,1.10
2018-08-10T18:16:40.035Z,1.00
2018-08-10T18:19:10.293Z,1.00
2018-08-10T18:21:40.372Z,1.07
2018-08-10T18:24:10.587Z,1.00
2018-08-10T18:26:40.791Z,1.00
2018-08-10T18:29:11.000Z,1.00
2018-08-10T18:31:41.339Z,0.83
2018-08-10T18:34:11.560Z,1.07
2018-08-10T18:36:41.771Z,0.80
2018-08-10T18:39:14.486Z,0.90
2018-08-10T18:41:44.664Z,0.80
2018-08-10T18:44:14.974Z,0.80
2018-08-10T18:46:45.167Z,0.83
2018-08-10T18:49:15.405Z,0.90
2018-08-10T18:51:45.531Z,1.50
2018-08-10T18:54:15.740Z,0.90
2018-08-10T18:56:45.860Z,0.80
2018-08-10T18:59:16.005Z,0.90
2018-08-10T19:01:46.155Z,0.90
2018-08-10T19:04:16.409Z,0.73
2018-08-10T19:06:46.697Z,1.17
2018-08-10T19:09:16.918Z,1.10
2018-08-10T19:11:47.120Z,1.00
2018-08-10T19:14:17.412Z,1.10
2018-08-10T19:16:48.087Z,1.13
2018-08-10T19:19:19.036Z,1.07
2018-08-10T19:21:49.842Z,0.87
2018-08-10T19:24:20.255Z,1.27
2018-08-10T19:26:50.560Z,1.17
2018-08-10T19:29:20.806Z,1.27
2018-08-10T19:31:51.049Z,1.27
2018-08-10T19:34:21.320Z,0.90
2018-08-10T19:36:51.695Z,0.93
2018-08-10T19:39:21.975Z,1.10
2018-08-10T19:41:52.221Z,1.23
2018-08-10T19:44:22.406Z,2.03
2018-08-10T19:46:52.604Z,0.90
2018-08-10T19:49:22.874Z,0.90
2018-08-10T19:51:53.169Z,0.80
2018-08-10T19:54:23.529Z,1.00
2018-08-10T19:56:53.846Z,0.90
2018-08-10T19:59:24.057Z,1.27
2018-08-10T20:01:54.312Z,1.00
2018-08-10T20:04:24.554Z,1.30
2018-08-10T20:06:54.642Z,1.00
2018-08-10T20:09:24.807Z,1.17
2018-08-10T20:11:54.966Z,1.37
2018-08-10T20:14:25.224Z,1.00
2018-08-10T20:16:55.454Z,1.73
2018-08-10T20:19:25.701Z,1.20
2018-08-10T20:21:55.921Z,0.97
2018-08-10T20:24:26.061Z,0.87
2018-08-10T20:26:56.151Z,1.57
2018-08-10T20:29:26.387Z,1.27
2018-08-10T20:31:56.520Z,1.37
2018-08-10T20:34:26.688Z,1.10
2018-08-10T20:36:56.859Z,1.00
2018-08-10T20:39:27.034Z,1.23
2018-08-10T20:41:57.244Z,1.10
2018-08-10T20:44:27.448Z,1.00
2018-08-10T20:46:57.572Z,1.00
2018-08-10T20:49:27.749Z,1.10
2018-08-10T20:51:57.820Z,1.40
2018-08-10T20:54:28.018Z,1.17
2018-08-10T20:56:58.196Z,1.00
2018-08-10T20:59:28.368Z,1.93
2018-08-10T21:01:58.493Z,1.83
2018-08-10T21:04:28.749Z,1.77
2018-08-10T21:06:58.827Z,1.80
2018-08-10T21:09:28.973Z,2.80
2018-08-10T21:11:59.126Z,2.70
2018-08-10T21:14:29.272Z,2.07
2018-08-10T21:16:59.502Z,2.30
2018-08-10T21:19:29.613Z,1.93
2018-08-10T21:21:59.809Z,1.97
2018-08-10T21:24:30.007Z,2.67
2018-08-10T21:27:00.150Z,2.47
2018-08-10T21:29:30.419Z,2.80
2018-08-10T21:32:00.449Z,2.03
2018-08-10T21:34:30.680Z,2.67
2018-08-10T21:37:00.834Z,2.10
2018-08-10T21:39:30.996Z,3.03
2018-08-10T21:42:01.153Z,2.47
2018-08-10T21:44:31.333Z,2.50
2018-08-10T21:47:01.436Z,2.43
2018-08-10T21:49:31.596Z,2.83
2018-08-10T21:52:01.711Z,4.00
2018-08-10T21:54:31.851Z,2.13
2018-08-10T21:57:01.970Z,1.93
2018-08-10T21:59:32.090Z,2.43
2018-08-10T22:02:02.460Z,2.13
2018-08-10T22:04:32.689Z,2.20
2018-08-10T22:07:02.861Z,2.97
2018-08-10T22:09:33.061Z,2.90
2018-08-10T22:12:03.145Z,2.37
2018-08-10T22:14:39.252Z,2.77
2018-08-10T22:17:14.444Z,2.77
2018-08-10T22:19:44.575Z,2.50
2018-08-10T22:22:14.820Z,2.37
2018-08-10T22:24:44.963Z,1.90
2018-08-10T22:27:15.099Z,1.80
2018-08-10T22:29:45.275Z,2.03
2018-08-10T22:32:15.413Z,1.40
2018-08-10T22:34:45.605Z,1.20
2018-08-10T22:37:15.726Z,1.10
2018-08-10T22:39:45.805Z,1.20
2018-08-10T22:42:15.937Z,1.20
2018-08-10T22:44:46.118Z,0.90
2018-08-10T22:47:17.180Z,1.10
2018-08-10T22:49:47.304Z,1.03
2018-08-10T22:52:17.464Z,0.90
2018-08-10T22:54:47.671Z,1.40
2018-08-10T22:57:17.807Z,1.13
2018-08-10T22:59:48.035Z,0.90
2018-08-10T23:02:18.160Z,1.33
2018-08-10T23:04:48.386Z,1.27
2018-08-10T23:07:18.589Z,0.77
2018-08-10T23:09:48.774Z,1.20
2018-08-10T23:12:19.063Z,1.17
2018-08-10T23:14:49.410Z,0.80
2018-08-10T23:17:19.574Z,1.57
2018-08-10T23:19:49.724Z,0.83
2018-08-10T23:22:20.159Z,1.10
2018-08-10T23:24:50.391Z,1.07
2018-08-10T23:27:20.516Z,1.13
2018-08-10T23:29:50.676Z,1.30
2018-08-10T23:32:20.754Z,1.10
2018-08-10T23:34:50.908Z,1.27
2018-08-10T23:37:20.993Z,1.70
2018-08-10T23:39:51.155Z,0.90
2018-08-10T23:42:21.268Z,1.03
2018-08-10T23:44:51.443Z,1.03
2018-08-10T23:47:21.521Z,1.10
2018-08-10T23:49:51.714Z,1.17
2018-08-10T23:52:21.839Z,0.93
2018-08-10T23:54:51.958Z,1.33
2018-08-10T23:57:22.000Z,1.17
2018-08-10T23:59:52.145Z,1.03
